Time;durP1;ratioP1;P1;durP2;ratioP2;P2;SDS_P1;SDS_P2;PMS_P1;PMS_P2;Temp;Humidity;BMP_temperature;BMP_pressure;BME280_temperature;BME280_humidity;BME280_pressure;Samples;Min_cycle;Max_cycle;Signal;HPM_P1;HPM_P2
2021/12/14 00:00:21;;;;;;;21.77;19.50;;;;;;;2.73;92.77;97761.34;5037366;28;20604;-72
2021/12/14 00:02:49;;;;;;;21.17;18.97;;;;;;;2.74;93.00;97761.28;5036692;28;20207;-74
2021/12/14 00:05:17;;;;;;;21.67;19.37;;;;;;;2.80;93.17;97747.94;5040947;28;20372;-74
2021/12/14 00:07:44;;;;;;;22.80;20.47;;;;;;;2.78;93.39;97746.31;5036665;28;20671;-76
2021/12/14 00:10:27;;;;;;;22.23;19.83;;;;;;;2.78;92.71;97749.78;5025214;28;20205;-73
2021/12/14 00:13:02;;;;;;;20.00;17.90;;;;;;;2.79;93.57;97751.47;5037374;28;20310;-74
2021/12/14 00:15:30;;;;;;;20.20;18.07;;;;;;;2.86;91.41;97739.84;5037042;28;20248;-72
2021/12/14 00:18:00;;;;;;;21.20;18.97;;;;;;;2.81;91.83;97744.41;5024371;28;20212;-71
2021/12/14 00:20:30;;;;;;;20.13;18.03;;;;;;;2.75;92.30;97749.06;5028219;28;20209;-72
2021/12/14 00:25:44;;;;;;;20.40;18.33;;;;;;;2.76;91.26;97749.00;5026036;28;20210;-73
2021/12/14 00:28:19;;;;;;;21.07;18.40;;;;;;;2.73;92.17;97751.72;5036814;28;20225;-71
2021/12/14 00:30:46;;;;;;;21.03;18.87;;;;;;;2.79;91.42;97756.69;5036895;28;20210;-74
2021/12/14 00:33:15;;;;;;;20.67;18.23;;;;;;;2.79;91.33;97750.63;5036451;28;20222;-72
2021/12/14 00:35:42;;;;;;;20.47;18.30;;;;;;;2.82;91.28;97759.16;5025572;28;20299;-72
2021/12/14 00:38:10;;;;;;;21.13;18.87;;;;;;;2.83;91.36;97768.72;5033922;28;20554;-74
2021/12/14 00:40:39;;;;;;;20.50;18.30;;;;;;;2.81;91.24;97765.31;5024304;28;20559;-73
2021/12/14 00:43:07;;;;;;;20.03;17.93;;;;;;;2.77;91.34;97755.91;5035460;28;20199;-71
2021/12/14 00:45:39;;;;;;;20.57;18.40;;;;;;;2.65;92.07;97764.31;5036144;28;20609;-72
2021/12/14 00:48:07;;;;;;;19.07;17.17;;;;;;;2.69;91.68;97765.00;5032241;28;20241;-72
2021/12/14 00:50:36;;;;;;;18.93;16.97;;;;;;;2.70;91.21;97775.38;5035979;28;20218;-70
2021/12/14 00:53:03;;;;;;;21.33;19.03;;;;;;;2.66;90.81;97786.88;5023322;28;20219;-73
2021/12/14 00:55:36;;;;;;;20.30;18.17;;;;;;;2.63;90.95;97780.94;5036053;28;20238;-71
2021/12/14 00:58:03;;;;;;;19.70;17.70;;;;;;;2.64;90.25;97778.25;5027779;28;20216;-71
2021/12/14 01:00:33;;;;;;;19.17;17.27;;;;;;;2.47;90.68;97772.94;5016134;28;20219;-71
2021/12/14 01:03:03;;;;;;;19.97;17.97;;;;;;;2.35;91.00;97774.28;5016243;28;20219;-73
2021/12/14 01:05:32;;;;;;;19.80;17.70;;;;;;;2.32;92.91;97774.44;5032650;28;20208;-72
2021/12/14 01:08:00;;;;;;;19.07;17.17;;;;;;;2.36;91.47;97777.75;5036186;28;20608;-75
2021/12/14 01:10:29;;;;;;;19.90;18.00;;;;;;;2.35;91.50;97770.84;5035781;28;20581;-72
2021/12/14 01:13:02;;;;;;;20.67;18.57;;;;;;;2.31;91.96;97770.13;5039476;28;20203;-76
2021/12/14 01:15:50;;;;;;;19.23;17.33;;;;;;;2.33;91.13;97772.66;5032111;28;20589;-73
2021/12/14 01:18:31;;;;;;;19.50;17.50;;;;;;;2.30;90.91;97772.81;5020966;28;20596;-76
2021/12/14 01:21:03;;;;;;;19.63;17.57;;;;;;;2.28;90.57;97777.22;5016438;28;20236;-73
2021/12/14 01:23:33;;;;;;;19.60;17.60;;;;;;;2.20;91.58;97784.53;5033459;28;20207;-72
2021/12/14 01:26:05;;;;;;;20.27;18.13;;;;;;;2.11;92.01;97777.94;5035781;28;20232;-74
2021/12/14 01:28:33;;;;;;;19.43;17.43;;;;;;;2.06;92.27;97785.09;5035769;28;20543;-72
2021/12/14 01:31:07;;;;;;;19.90;17.90;;;;;;;2.08;93.63;97779.81;5035372;28;20531;-75
2021/12/14 01:33:38;;;;;;;21.07;18.87;;;;;;;2.11;93.36;97783.16;5035460;28;20293;-71
2021/12/14 01:36:11;;;;;;;21.23;18.70;;;;;;;2.11;94.13;97785.78;5035600;28;20218;-72
2021/12/14 01:38:47;;;;;;;21.97;19.20;;;;;;;2.14;94.76;97785.63;5035787;28;20207;-75
2021/12/14 01:41:15;;;;;;;23.20;20.80;;;;;;;2.20;94.29;97781.91;5035278;28;20246;-73
2021/12/14 01:43:47;;;;;;;22.00;19.60;;;;;;;2.24;94.28;97779.13;5035480;28;20218;-74
2021/12/14 01:46:17;;;;;;;22.73;19.63;;;;;;;2.23;93.35;97776.59;5035056;28;20206;-71
2021/12/14 01:48:46;;;;;;;22.47;20.07;;;;;;;2.27;93.71;97778.97;5035419;28;20222;-75
2021/12/14 01:51:14;;;;;;;23.70;19.97;;;;;;;2.24;94.70;97778.25;5026491;28;20203;-73
2021/12/14 01:53:43;;;;;;;21.87;19.53;;;;;;;2.29;93.82;97768.50;5047777;28;20218;-75
2021/12/14 01:56:12;;;;;;;21.13;18.90;;;;;;;2.31;93.48;97782.31;5033214;28;20215;-75
2021/12/14 01:58:41;;;;;;;23.23;20.20;;;;;;;2.29;93.28;97777.16;5041224;28;20196;-74
2021/12/14 02:01:11;;;;;;;21.57;19.27;;;;;;;2.33;93.13;97772.66;5018167;28;20215;-73
2021/12/14 02:03:41;;;;;;;23.13;19.23;;;;;;;2.39;92.67;97782.84;5031001;28;20200;-76
2021/12/14 02:06:13;;;;;;;20.93;18.70;;;;;;;2.40;91.75;97779.31;5045595;28;20620;-70
2021/12/14 02:08:40;;;;;;;25.53;20.30;;;;;;;2.38;92.65;97786.34;5035203;28;20777;-75
2021/12/14 02:11:09;;;;;;;26.17;22.07;;;;;;;2.44;92.50;97788.72;5036505;28;20213;-70
2021/12/14 02:13:40;;;;;;;26.80;21.70;;;;;;;2.40;92.85;97790.63;5036984;28;20215;-73
2021/12/14 02:16:09;;;;;;;24.00;20.27;;;;;;;2.32;93.43;97797.06;5035651;28;20219;-73
2021/12/14 02:18:36;;;;;;;26.20;20.00;;;;;;;2.33;92.92;97809.22;5039675;28;20234;-76
2021/12/14 02:21:06;;;;;;;26.53;20.33;;;;;;;2.33;93.74;97814.44;5040289;28;20305;-74
2021/12/14 02:23:33;;;;;;;24.43;20.67;;;;;;;2.29;93.75;97813.72;5041431;28;20640;-71
2021/12/14 02:26:02;;;;;;;26.30;20.57;;;;;;;2.34;93.45;97816.97;5039133;28;20215;-72
2021/12/14 02:28:29;;;;;;;22.60;20.07;;;;;;;2.29;92.64;97810.25;5039223;28;20512;-72
2021/12/14 02:30:57;;;;;;;23.33;20.07;;;;;;;2.29;92.13;97818.94;5039107;28;20203;-71
2021/12/14 02:33:29;;;;;;;22.77;19.93;;;;;;;2.19;92.31;97812.41;5039217;28;20612;-73
2021/12/14 02:35:56;;;;;;;24.70;20.60;;;;;;;1.97;93.38;97817.66;5040024;28;20665;-75
2021/12/14 02:38:25;;;;;;;20.97;18.60;;;;;;;1.85;93.57;97818.13;5025911;28;20248;-76
2021/12/14 02:40:55;;;;;;;21.93;19.33;;;;;;;1.87;95.08;97820.69;5039820;28;20695;-70
2021/12/14 02:43:24;;;;;;;20.60;18.40;;;;;;;1.76;93.87;97812.44;5039539;28;20271;-71
2021/12/14 02:45:51;;;;;;;23.07;19.93;;;;;;;1.81;94.09;97807.88;5044466;28;20201;-74
2021/12/14 02:48:18;;;;;;;21.30;18.83;;;;;;;1.89;93.72;97814.47;5056640;28;20225;-71
2021/12/14 02:50:45;;;;;;;20.93;18.57;;;;;;;1.81;93.95;97816.53;5055567;28;20202;-73
2021/12/14 02:53:11;;;;;;;22.23;18.83;;;;;;;1.76;94.89;97809.81;5055813;28;20212;-71
2021/12/14 02:55:39;;;;;;;22.33;19.33;;;;;;;1.80;94.29;97814.88;5056484;28;20235;-73
2021/12/14 02:58:08;;;;;;;22.30;19.33;;;;;;;1.82;94.40;97807.81;5055505;28;20203;-73
2021/12/14 03:00:37;;;;;;;22.80;19.23;;;;;;;1.78;95.23;97801.03;5051095;28;20271;-72
2021/12/14 03:03:05;;;;;;;21.67;19.33;;;;;;;1.77;95.17;97803.72;5019294;28;20215;-72
2021/12/14 03:05:34;;;;;;;23.33;19.50;;;;;;;1.71;95.11;97807.38;5043750;28;20285;-73
2021/12/14 03:08:04;;;;;;;22.40;19.67;;;;;;;1.71;94.95;97810.00;5038330;28;20205;-74
2021/12/14 03:10:37;;;;;;;22.47;18.90;;;;;;;1.75;94.63;97810.72;5038326;28;20221;-71
2021/12/14 03:13:10;;;;;;;20.57;18.37;;;;;;;1.73;95.39;97810.81;5038070;28;20215;-75
2021/12/14 03:15:46;;;;;;;21.60;19.00;;;;;;;1.71;95.23;97819.56;5024451;28;20535;-74
2021/12/14 03:18:14;;;;;;;21.43;18.77;;;;;;;1.78;95.81;97816.66;5037856;28;20210;-76
2021/12/14 03:20:43;;;;;;;20.87;18.67;;;;;;;1.76;94.91;97818.50;5038105;28;20310;-74
2021/12/14 03:23:11;;;;;;;22.07;19.37;;;;;;;1.78;94.80;97823.63;5025928;28;20208;-75
2021/12/14 03:25:42;;;;;;;21.43;18.97;;;;;;;1.88;95.32;97820.59;5019626;28;20213;-76
2021/12/14 03:28:12;;;;;;;24.40;20.33;;;;;;;1.93;94.32;97820.44;5021756;28;20294;-76
2021/12/14 03:30:42;;;;;;;22.37;19.97;;;;;;;1.93;93.92;97816.06;5039932;28;20211;-75
2021/12/14 03:33:13;;;;;;;22.10;19.37;;;;;;;1.93;94.12;97826.50;5039350;28;20210;-73
2021/12/14 03:35:42;;;;;;;20.37;18.27;;;;;;;1.91;94.31;97819.66;5037783;28;20219;-73
2021/12/14 03:38:13;;;;;;;21.90;18.17;;;;;;;1.93;95.72;97816.06;5037914;28;20562;-72
2021/12/14 03:40:40;;;;;;;23.50;19.97;;;;;;;1.90;94.36;97820.56;5037564;28;20656;-75
2021/12/14 03:43:07;;;;;;;21.37;19.07;;;;;;;1.91;95.09;97817.88;5037918;28;20215;-74
2021/12/14 03:45:35;;;;;;;21.40;19.10;;;;;;;1.85;94.53;97807.69;5037982;28;20471;-73
2021/12/14 03:48:03;;;;;;;21.57;19.17;;;;;;;1.86;96.05;97808.53;5024929;28;20219;-76
2021/12/14 03:50:35;;;;;;;24.23;19.70;;;;;;;1.87;96.64;97821.53;5036326;28;20618;-73
2021/12/14 03:53:02;;;;;;;27.90;20.17;;;;;;;1.97;97.52;97816.78;5017496;28;20192;-73
2021/12/14 03:55:32;;;;;;;24.60;20.47;;;;;;;1.92;96.84;97816.97;5017728;28;20243;-75
2021/12/14 03:57:59;;;;;;;27.70;22.00;;;;;;;1.96;96.56;97826.38;5017467;28;20216;-72
2021/12/14 04:00:29;;;;;;;21.67;19.10;;;;;;;2.00;96.48;97822.72;5017510;28;20211;-72
2021/12/14 04:03:02;;;;;;;22.93;19.53;;;;;;;2.07;95.36;97825.09;5017082;28;20211;-75
2021/12/14 04:05:28;;;;;;;20.30;18.10;;;;;;;2.03;94.53;97820.91;5036746;28;20274;-73
2021/12/14 04:07:55;;;;;;;19.47;17.47;;;;;;;1.94;94.79;97828.22;5037722;28;20221;-71
2021/12/14 04:10:24;;;;;;;19.97;17.63;;;;;;;2.03;94.72;97823.50;5036706;28;20659;-75
2021/12/14 04:12:52;;;;;;;19.23;17.30;;;;;;;1.99;94.04;97815.81;5037028;28;20214;-74
2021/12/14 04:15:20;;;;;;;19.63;17.47;;;;;;;1.96;93.38;97815.09;5036684;28;20229;-76
2021/12/14 04:17:46;;;;;;;19.90;17.77;;;;;;;1.98;94.29;97813.28;5037294;28;20202;-75
2021/12/14 04:20:17;;;;;;;22.77;18.33;;;;;;;1.99;94.22;97809.72;5036948;28;20207;-72
2021/12/14 04:22:48;;;;;;;19.93;17.70;;;;;;;1.97;94.84;97811.56;5037141;28;20216;-70
2021/12/14 04:25:16;;;;;;;19.10;17.20;;;;;;;1.98;94.29;97805.44;5037546;28;20203;-70
2021/12/14 04:27:43;;;;;;;20.77;18.57;;;;;;;1.96;95.10;97789.84;5037381;28;20206;-71
2021/12/14 04:30:12;;;;;;;21.83;18.30;;;;;;;1.98;95.50;97801.06;5023703;28;20543;-73
2021/12/14 04:32:39;;;;;;;21.87;18.57;;;;;;;2.02;93.79;97807.00;5037207;28;20225;-70
2021/12/14 04:35:08;;;;;;;22.87;18.87;;;;;;;2.00;94.63;97806.22;5037425;28;20689;-70
2021/12/14 04:37:39;;;;;;;22.03;17.90;;;;;;;2.05;93.74;97809.50;5026802;28;20215;-70
2021/12/14 04:40:20;;;;;;;21.23;18.93;;;;;;;2.05;94.87;97801.69;5025178;28;20218;-72
2021/12/14 04:53:49;;;;;;;20.10;17.90;;;;;;;2.04;93.91;97818.25;5024302;28;20233;-74
2021/12/14 04:56:18;;;;;;;21.07;17.50;;;;;;;2.05;93.63;97813.88;5036291;28;20227;-74
2021/12/14 04:58:47;;;;;;;20.33;18.23;;;;;;;1.96;92.58;97805.50;5028435;28;20223;-69
2021/12/14 05:01:15;;;;;;;19.07;17.07;;;;;;;1.98;92.46;97803.66;5019730;28;20225;-69
2021/12/14 05:03:45;;;;;;;18.73;16.80;;;;;;;1.98;92.98;97801.06;5039833;28;20206;-70
2021/12/14 05:06:16;;;;;;;17.93;16.10;;;;;;;1.93;92.16;97802.16;5034096;28;20526;-71
2021/12/14 05:11:31;;;;;;;19.07;17.03;;;;;;;1.98;91.44;97803.66;5028421;28;20273;-74
2021/12/14 05:14:02;;;;;;;18.83;16.87;;;;;;;1.85;90.76;97799.88;5054953;28;20217;-71
2021/12/14 05:16:30;;;;;;;18.33;16.43;;;;;;;1.83;91.28;97799.09;5053550;28;20215;-72
2021/12/14 05:18:59;;;;;;;17.77;15.97;;;;;;;1.81;91.67;97811.31;5051674;28;20214;-73
2021/12/14 05:21:26;;;;;;;17.37;15.57;;;;;;;1.78;92.15;97800.16;5052985;28;20221;-75
2021/12/14 05:23:53;;;;;;;17.37;15.67;;;;;;;1.68;92.88;97791.03;5041632;28;20626;-76
2021/12/14 05:26:21;;;;;;;17.63;15.73;;;;;;;1.73;92.90;97795.16;5043611;28;20222;-76
2021/12/14 05:28:48;;;;;;;18.67;16.67;;;;;;;1.74;93.23;97804.66;5049887;28;20217;-71
2021/12/14 05:31:15;;;;;;;19.03;17.03;;;;;;;1.74;93.12;97807.25;5049266;28;20218;-71
2021/12/14 05:33:43;;;;;;;19.63;17.53;;;;;;;1.71;94.63;97812.59;5051476;28;20207;-73
2021/12/14 05:36:14;;;;;;;19.37;17.30;;;;;;;1.78;95.13;97806.25;5043496;28;20404;-72
2021/12/14 05:38:51;;;;;;;19.37;16.53;;;;;;;1.83;95.44;97806.91;5042940;28;20195;-74
2021/12/14 05:44:05;;;;;;;19.93;17.27;;;;;;;1.92;95.14;97818.72;5040450;28;20239;-74
2021/12/14 05:46:31;;;;;;;22.40;19.07;;;;;;;1.89;93.75;97830.13;5039557;28;20233;-76
2021/12/14 05:49:00;;;;;;;23.07;19.50;;;;;;;1.88;94.19;97841.47;5027134;28;20216;-72
2021/12/14 05:51:28;;;;;;;21.20;18.70;;;;;;;1.95;94.14;97840.31;5043349;28;20207;-71
2021/12/14 05:53:54;;;;;;;20.93;18.63;;;;;;;1.96;95.01;97836.81;5049445;28;20206;-74
2021/12/14 05:56:22;;;;;;;24.43;19.10;;;;;;;1.83;94.47;97835.59;5049208;28;20241;-72
2021/12/14 05:58:50;;;;;;;21.53;18.80;;;;;;;1.83;95.13;97835.59;5036330;28;20222;-74
2021/12/14 06:01:20;;;;;;;24.13;19.83;;;;;;;1.88;95.24;97838.00;5047641;28;20214;-76
2021/12/14 06:03:51;;;;;;;24.07;19.70;;;;;;;1.86;95.97;97832.88;5053932;28;20194;-73
2021/12/14 06:06:20;;;;;;;21.97;18.47;;;;;;;1.88;95.32;97830.19;5047184;28;20294;-76
2021/12/14 06:08:47;;;;;;;27.67;19.63;;;;;;;1.81;95.16;97816.53;5031605;28;20222;-75
2021/12/14 06:11:20;;;;;;;26.03;19.60;;;;;;;1.78;95.45;97814.06;5036313;28;20221;-72
2021/12/14 06:13:46;;;;;;;24.20;19.37;;;;;;;1.83;95.80;97817.34;5050379;28;20202;-72
2021/12/14 06:16:24;;;;;;;25.30;20.60;;;;;;;1.86;96.05;97814.63;5052211;28;20231;-72
2021/12/14 06:18:51;;;;;;;26.43;20.90;;;;;;;1.81;96.27;97806.13;5052559;28;20195;-72
2021/12/14 06:21:18;;;;;;;24.30;20.13;;;;;;;1.76;97.33;97792.44;5055459;28;20190;-72
2021/12/14 06:23:45;;;;;;;28.07;21.63;;;;;;;1.78;97.95;97794.94;5056324;28;20224;-72
2021/12/14 06:26:13;;;;;;;24.27;19.37;;;;;;;1.89;96.69;97801.44;5053092;28;20207;-74
2021/12/14 06:28:40;;;;;;;22.07;19.27;;;;;;;1.80;96.12;97801.81;5049723;28;20245;-71
2021/12/14 06:31:06;;;;;;;24.27;19.90;;;;;;;1.79;95.80;97815.78;5039256;28;20235;-72
2021/12/14 06:33:34;;;;;;;25.10;20.30;;;;;;;1.79;95.96;97847.06;5034819;28;20526;-70
2021/12/14 06:36:02;;;;;;;22.47;19.10;;;;;;;1.77;96.48;97850.66;5051649;28;20249;-73
2021/12/14 06:38:29;;;;;;;23.00;19.77;;;;;;;1.81;95.37;97839.16;5053506;28;20242;-72
2021/12/14 06:41:15;;;;;;;22.73;19.60;;;;;;;1.89;96.43;97831.88;5041440;28;20249;-70
2021/12/14 06:43:45;;;;;;;24.60;19.43;;;;;;;1.90;95.85;97826.63;5037350;28;20634;-71
2021/12/14 06:46:14;;;;;;;24.43;19.93;;;;;;;1.89;94.38;97826.69;5036490;28;20207;-76
2021/12/14 06:48:43;;;;;;;24.67;20.00;;;;;;;1.79;96.00;97828.81;5035105;28;20703;-72
2021/12/14 06:51:13;;;;;;;27.93;20.30;;;;;;;1.84;95.46;97832.06;5035280;28;20213;-76
2021/12/14 06:53:40;;;;;;;22.60;18.90;;;;;;;1.96;94.59;97821.16;5027169;28;20214;-73
2021/12/14 06:56:09;;;;;;;23.37;19.43;;;;;;;1.97;94.24;97833.28;5050527;28;20229;-70
2021/12/14 06:58:39;;;;;;;22.27;19.30;;;;;;;1.94;92.49;97828.22;5047909;28;20218;-72
2021/12/14 07:01:09;;;;;;;22.20;18.50;;;;;;;1.97;93.02;97827.22;5043096;28;20577;-73
2021/12/14 07:03:37;;;;;;;22.10;17.63;;;;;;;1.86;93.77;97818.97;5035297;28;20224;-73
2021/12/14 07:06:06;;;;;;;21.43;17.80;;;;;;;1.77;93.95;97814.13;5045140;28;20211;-71
2021/12/14 07:08:33;;;;;;;21.70;18.20;;;;;;;1.68;93.45;97825.78;5042255;28;20222;-72
2021/12/14 07:10:59;;;;;;;19.43;17.33;;;;;;;1.73;92.86;97821.25;5035711;28;20227;-73
2021/12/14 07:13:34;;;;;;;18.83;16.93;;;;;;;1.86;91.33;97818.97;5046037;28;20209;-75
2021/12/14 07:16:01;;;;;;;18.23;16.43;;;;;;;1.77;91.89;97822.78;5041608;28;20242;-74
2021/12/14 07:18:29;;;;;;;18.47;16.57;;;;;;;1.68;91.48;97811.88;5042992;28;20217;-75
2021/12/14 07:20:56;;;;;;;19.83;17.73;;;;;;;1.65;91.58;97823.28;5040862;28;20210;-72
2021/12/14 07:23:28;;;;;;;17.53;15.50;;;;;;;1.66;91.91;97814.56;5041320;28;20203;-75
2021/12/14 07:25:57;;;;;;;18.23;16.37;;;;;;;1.62;92.08;97818.19;5028366;28;20207;-75
2021/12/14 07:28:24;;;;;;;18.60;16.27;;;;;;;1.60;91.89;97820.00;5030003;28;20199;-75
2021/12/14 07:30:53;;;;;;;18.40;16.47;;;;;;;1.57;94.08;97820.13;5028547;28;20203;-73
2021/12/14 07:33:21;;;;;;;18.20;15.97;;;;;;;1.58;92.46;97819.22;5032286;28;20202;-72
2021/12/14 07:35:52;;;;;;;17.70;15.80;;;;;;;1.57;93.07;97816.66;5034096;28;20321;-72
2021/12/14 07:38:31;;;;;;;17.70;15.80;;;;;;;1.61;92.56;97813.88;5040350;28;20214;-71
2021/12/14 07:41:02;;;;;;;19.57;17.00;;;;;;;1.65;94.95;97809.41;5038265;28;20236;-72
2021/12/14 07:43:33;;;;;;;18.80;16.90;;;;;;;1.72;94.09;97806.50;5026907;28;20221;-73
2021/12/14 07:46:00;;;;;;;22.50;17.23;;;;;;;1.71;93.97;97798.72;5029703;28;20198;-75
2021/12/14 07:48:41;;;;;;;23.77;18.60;;;;;;;1.76;95.60;97802.84;5039591;28;20215;-75
2021/12/14 07:51:07;;;;;;;24.07;19.13;;;;;;;1.83;96.36;97813.88;5039997;28;20207;-74
2021/12/14 07:53:40;;;;;;;21.03;17.40;;;;;;;1.88;96.15;97823.22;5038175;28;20213;-71
2021/12/14 07:56:07;;;;;;;19.73;17.57;;;;;;;1.92;94.99;97821.34;5037008;28;20218;-76
2021/12/14 07:58:35;;;;;;;21.10;18.43;;;;;;;1.97;95.19;97806.34;5037969;28;20210;-72
2021/12/14 08:01:01;;;;;;;22.67;17.73;;;;;;;2.08;94.08;97808.53;5037407;28;20206;-73
2021/12/14 08:03:33;;;;;;;19.07;16.90;;;;;;;2.09;93.47;97824.09;5038356;28;20215;-71
2021/12/14 08:06:00;;;;;;;22.27;17.83;;;;;;;2.07;92.92;97840.75;5034856;28;20218;-74
2021/12/14 08:08:33;;;;;;;18.40;16.27;;;;;;;2.06;93.71;97839.88;5037659;28;20208;-74
2021/12/14 08:11:28;;;;;;;18.83;16.80;;;;;;;2.12;92.47;97836.19;5034201;28;20554;-74
2021/12/14 08:13:56;;;;;;;18.73;16.37;;;;;;;2.03;92.24;97836.56;5031517;28;20297;-74
2021/12/14 08:16:22;;;;;;;19.13;16.50;;;;;;;1.96;91.89;97836.81;5024395;28;20231;-71
2021/12/14 08:18:49;;;;;;;20.03;16.30;;;;;;;2.02;93.14;97837.47;5031584;28;20203;-75
2021/12/14 08:21:19;;;;;;;20.20;17.07;;;;;;;1.99;92.68;97848.88;5018420;28;20219;-75
2021/12/14 08:23:52;;;;;;;18.60;16.60;;;;;;;2.03;93.26;97849.59;5037076;28;20222;-72
2021/12/14 08:26:23;;;;;;;19.83;16.60;;;;;;;2.05;93.83;97851.25;5037042;28;20203;-74
2021/12/14 08:28:51;;;;;;;18.63;16.43;;;;;;;2.07;93.62;97852.03;5037728;28;20219;-72
2021/12/14 08:31:19;;;;;;;18.53;16.53;;;;;;;2.18;93.88;97862.03;5038419;28;20216;-71
2021/12/14 08:33:45;;;;;;;19.97;16.97;;;;;;;2.16;92.77;97861.25;5049471;28;20517;-70
2021/12/14 08:36:14;;;;;;;20.87;16.57;;;;;;;2.22;92.54;97868.84;5036657;28;20239;-71
2021/12/14 08:38:41;;;;;;;20.23;16.90;;;;;;;2.24;93.14;97870.47;5036994;28;20541;-70
2021/12/14 08:41:15;;;;;;;20.80;17.60;;;;;;;2.30;92.77;97857.16;5037203;28;20260;-74
2021/12/14 08:43:48;;;;;;;21.70;18.50;;;;;;;2.18;92.22;97846.38;5032525;28;20207;-73
2021/12/14 08:46:19;;;;;;;20.20;18.03;;;;;;;2.22;93.88;97843.59;5029961;28;20508;-73
2021/12/14 08:48:47;;;;;;;22.27;18.77;;;;;;;2.21;93.72;97851.47;5023710;28;20207;-71
2021/12/14 08:51:17;;;;;;;22.13;18.30;;;;;;;2.27;93.57;97856.44;5036963;28;20230;-72
2021/12/14 08:53:46;;;;;;;20.10;17.57;;;;;;;2.27;93.03;97866.88;5029990;28;20214;-74
2021/12/14 08:56:13;;;;;;;23.03;18.20;;;;;;;2.29;92.77;97875.50;5034107;28;20226;-72
2021/12/14 08:58:41;;;;;;;24.17;19.10;;;;;;;2.29;93.08;97878.09;5040828;28;20215;-73
2021/12/14 09:01:15;;;;;;;22.87;18.47;;;;;;;2.33;92.98;97869.25;5039110;28;20210;-74
2021/12/14 09:03:48;;;;;;;22.90;18.73;;;;;;;2.31;93.29;97858.84;5030882;28;20353;-73
2021/12/14 09:06:17;;;;;;;21.87;18.20;;;;;;;2.37;93.70;97863.00;5051355;22;20299;-74
2021/12/14 09:08:45;;;;;;;23.07;18.43;;;;;;;2.41;93.79;97864.53;5030633;28;20224;-72
2021/12/14 09:11:14;;;;;;;24.07;18.93;;;;;;;2.47;93.10;97869.53;5034917;28;20214;-73
2021/12/14 09:13:40;;;;;;;27.53;21.63;;;;;;;2.41;92.92;97881.06;5035030;28;20677;-75
2021/12/14 09:16:14;;;;;;;25.83;19.90;;;;;;;2.50;93.67;97885.91;5019805;28;20235;-72
2021/12/14 09:18:47;;;;;;;27.53;20.77;;;;;;;2.53;93.92;97887.53;5037265;28;20206;-74
2021/12/14 09:21:17;;;;;;;25.07;20.07;;;;;;;2.55;93.44;97880.47;5033833;28;20211;-74
2021/12/14 09:23:47;;;;;;;25.27;20.73;;;;;;;2.56;93.11;97868.28;5028530;28;20218;-73
2021/12/14 09:26:17;;;;;;;28.63;20.37;;;;;;;2.70;93.33;97858.94;5037576;28;20272;-74
2021/12/14 09:28:44;;;;;;;26.20;19.40;;;;;;;2.70;92.78;97848.50;5032244;28;20203;-71
2021/12/14 09:31:15;;;;;;;23.23;19.27;;;;;;;2.72;93.56;97845.84;5038536;28;20258;-72
2021/12/14 09:33:42;;;;;;;29.90;21.10;;;;;;;2.63;91.80;97844.47;5024429;28;20212;-72
2021/12/14 09:36:13;;;;;;;28.27;21.97;;;;;;;2.64;91.89;97835.72;5031960;28;20575;-72
2021/12/14 09:38:40;;;;;;;25.53;20.53;;;;;;;2.66;92.18;97835.66;5035438;28;20204;-75
2021/12/14 09:41:09;;;;;;;26.77;19.90;;;;;;;2.56;94.01;97842.16;5036930;28;20265;-75
2021/12/14 09:43:37;;;;;;;26.80;20.27;;;;;;;2.69;93.03;97854.66;5037859;28;20293;-74
2021/12/14 09:46:06;;;;;;;25.87;20.70;;;;;;;2.72;92.57;97862.38;5031710;28;20206;-75
2021/12/14 09:48:37;;;;;;;24.93;19.67;;;;;;;2.82;92.57;97858.44;5034848;28;20545;-72
2021/12/14 09:51:07;;;;;;;24.93;19.93;;;;;;;2.74;93.16;97857.91;5045080;28;20290;-75
2021/12/14 09:53:37;;;;;;;25.33;19.50;;;;;;;2.72;92.56;97854.53;5036821;28;20250;-72
2021/12/14 09:56:05;;;;;;;27.67;20.30;;;;;;;2.83;93.13;97867.97;5033202;28;20202;-70
2021/12/14 09:58:34;;;;;;;25.47;19.07;;;;;;;2.88;92.35;97863.38;5034658;28;20207;-72
2021/12/14 10:01:06;;;;;;;19.60;16.87;;;;;;;2.91;91.35;97854.56;5034339;28;20515;-76
2021/12/14 10:03:34;;;;;;;17.90;16.00;;;;;;;2.83;88.92;97841.84;5037255;28;20215;-75
2021/12/14 10:06:03;;;;;;;18.30;15.83;;;;;;;2.86;90.15;97841.72;5035148;28;20234;-73
2021/12/14 10:08:34;;;;;;;17.53;15.67;;;;;;;2.91;90.17;97836.28;5037237;28;20203;-74
2021/12/14 10:11:07;;;;;;;17.70;15.67;;;;;;;2.90;88.77;97827.63;5027232;28;20246;-76
2021/12/14 10:13:36;;;;;;;16.97;15.27;;;;;;;3.03;88.47;97824.44;5029157;28;20234;-71
2021/12/14 10:16:06;;;;;;;17.20;14.97;;;;;;;3.23;88.37;97829.63;5033135;28;20233;-71
2021/12/14 10:18:36;;;;;;;17.27;15.20;;;;;;;3.33;87.80;97823.06;5028230;28;20592;-75
2021/12/14 10:21:07;;;;;;;16.23;14.53;;;;;;;3.52;87.67;97816.06;5036555;28;20212;-76
2021/12/14 10:23:35;;;;;;;15.07;13.50;;;;;;;3.66;85.13;97810.19;5036297;28;20214;-72
2021/12/14 10:26:02;;;;;;;14.20;12.80;;;;;;;3.82;84.41;97822.47;5031860;28;20207;-72
2021/12/14 10:28:29;;;;;;;15.10;13.57;;;;;;;4.12;85.04;97817.53;5018707;28;20220;-72
2021/12/14 10:30:59;;;;;;;15.73;13.90;;;;;;;4.32;85.74;97813.94;5033786;28;20235;-74
2021/12/14 10:33:27;;;;;;;15.37;13.87;;;;;;;4.32;84.13;97816.56;5020812;28;20502;-75
2021/12/14 10:36:02;;;;;;;15.80;14.17;;;;;;;4.55;82.85;97808.38;5025536;28;20551;-74
2021/12/14 10:38:37;;;;;;;16.00;14.23;;;;;;;4.51;81.27;97812.06;5038606;28;20302;-74
2021/12/14 10:43:56;;;;;;;16.87;15.07;;;;;;;4.60;82.29;97819.50;5037019;28;20206;-73
2021/12/14 10:46:26;;;;;;;16.27;14.43;;;;;;;4.42;82.81;97825.66;5039673;28;20235;-72
2021/12/14 10:48:53;;;;;;;15.50;13.90;;;;;;;4.50;82.31;97818.22;5041719;28;20211;-70
2021/12/14 10:51:27;;;;;;;14.47;12.97;;;;;;;4.39;82.70;97815.34;5052164;28;20264;-71
2021/12/14 10:53:55;;;;;;;15.40;13.80;;;;;;;4.37;81.88;97796.22;5037906;28;20220;-72
2021/12/14 10:56:26;;;;;;;15.23;13.67;;;;;;;4.38;82.24;97796.16;5041066;28;20214;-73
2021/12/14 10:58:56;;;;;;;15.33;13.77;;;;;;;4.53;81.74;97784.06;5038641;28;20829;-78
2021/12/14 11:01:31;;;;;;;14.43;12.93;;;;;;;4.34;81.59;97773.66;5046876;28;20226;-74
2021/12/14 11:04:01;;;;;;;15.93;14.07;;;;;;;4.18;82.08;97764.84;5040488;28;20215;-76
2021/12/14 11:06:31;;;;;;;19.30;14.17;;;;;;;4.06;84.34;97764.63;5049111;28;20323;-77
2021/12/14 11:09:39;;;;;;;18.83;16.33;;;;;;;3.93;85.10;97765.22;5047970;28;20283;-73
2021/12/14 11:11:52;;;;;;;19.00;16.23;;;;;;;4.14;86.01;97772.97;5046706;28;20643;-72
2021/12/14 11:14:21;;;;;;;20.50;16.43;;;;;;;4.15;87.24;97770.25;5044572;28;20628;-74
2021/12/14 11:19:38;;;;;;;19.70;16.57;;;;;;;4.29;86.60;97745.97;5049359;28;20218;-70
2021/12/14 11:22:10;;;;;;;23.63;18.97;;;;;;;4.60;84.42;97747.91;5053269;28;20210;-75
2021/12/14 11:24:38;;;;;;;24.37;18.53;;;;;;;4.37;86.37;97741.22;5048516;28;20216;-72
2021/12/14 11:27:13;;;;;;;23.27;18.77;;;;;;;4.32;86.67;97738.00;5037918;28;20204;-74
2021/12/14 11:29:40;;;;;;;25.70;19.70;;;;;;;4.45;88.14;97742.53;5042771;28;20208;-73
2021/12/14 11:32:08;;;;;;;24.67;20.23;;;;;;;4.43;88.46;97751.38;5041028;28;20541;-69
2021/12/14 11:34:37;;;;;;;26.23;19.80;;;;;;;4.53;88.00;97760.47;5041866;28;20207;-73
2021/12/14 11:37:08;;;;;;;27.90;20.97;;;;;;;4.36;87.87;97757.84;5034252;28;20293;-70
2021/12/14 11:39:41;;;;;;;22.57;19.03;;;;;;;4.54;87.21;97751.66;5043195;28;20214;-75
2021/12/14 11:42:09;;;;;;;23.53;18.73;;;;;;;4.48;86.95;97736.28;5044087;28;20272;-71
2021/12/14 11:44:38;;;;;;;21.80;18.20;;;;;;;4.44;87.40;97724.25;5047181;28;20204;-72
2021/12/14 11:47:12;;;;;;;22.50;18.57;;;;;;;4.46;87.20;97714.56;5035046;28;20218;-70
2021/12/14 11:49:49;;;;;;;22.30;18.47;;;;;;;4.57;87.80;97709.59;5027957;28;20222;-74
2021/12/14 11:52:39;;;;;;;21.70;17.83;;;;;;;4.61;86.76;97724.22;5054491;28;20211;-71
2021/12/14 11:55:19;;;;;;;20.43;17.53;;;;;;;4.72;87.72;97737.63;5040551;28;20191;-73
2021/12/14 11:57:47;;;;;;;24.00;18.80;;;;;;;4.73;86.42;97730.59;5040560;28;20201;-73
2021/12/14 12:00:16;;;;;;;22.40;18.13;;;;;;;4.77;87.13;97726.91;5040641;28;20184;-72